»·PEaware :: AAL518 KLAS-KLAX

AAL518 :: KLAS-KLAX

FLIGHT INFORMATION

Flight Status: Arrived
Operator:
American Airlines
More flights by this operator :: More flights under this callsign
Pilot: Jason P. (20596)
Aircraft: BOEING 737-800
(B738)
More flights by this aircraft type
Origin: KLAS McCarran Intl
United States
Destination: KLAX Los Angeles Intl
United States
More flights between these airports :: More routes between these airports
Route: +BOACH8 RIKII SHTNR ANJLL4
File this flight plan on PilotEdge
Remarks:
Altitude:
(Current/Filed)
28,000ft
Speed:
(Current/Filed)
455kts
Departed: 27-Sep-18 04:41 PM
Arrived: 27-Sep-18 05:25 PM
Distance/Time
Traveled:
205nm/0:43
Distance/Time
To Go:
Arrived

Flight Plot

Page will automatically refresh every two minutes.

Flight plan parsing failed; only flown route is shown


Map Options




Map Legend


Flown Route
Filed Route
Departure Airport
Arrival Airport
Navaid (VOR, NDB)
Fix

Horizontal Profiles

Position Reports

Time Latitude Longitude Heading Altitude Ground
Speed
27-Sep-18 16:22 36.085824 -115.154700 144 2188ft 0kts
27-Sep-18 16:23 36.085824 -115.154700 144 2188ft 0kts
27-Sep-18 16:24 36.085824 -115.154700 144 2188ft 0kts
27-Sep-18 16:25 36.085824 -115.154700 144 2188ft 0kts
27-Sep-18 16:26 36.085824 -115.154700 144 2188ft 0kts
27-Sep-18 16:27 36.085824 -115.154700 144 2188ft 0kts
27-Sep-18 16:28 36.085824 -115.154700 144 2188ft 0kts
27-Sep-18 16:29 36.085824 -115.154700 144 2188ft 0kts
27-Sep-18 16:30 36.085824 -115.154700 144 2188ft 0kts
27-Sep-18 16:31 36.085824 -115.154700 144 2188ft 0kts
27-Sep-18 16:32 36.085824 -115.154700 144 2188ft 0kts
27-Sep-18 16:33 36.085824 -115.154700 144 2188ft 0kts
27-Sep-18 16:34 36.086252 -115.155071 144 2188ft 2kts
27-Sep-18 16:35 36.086413 -115.155210 144 2188ft 0kts
27-Sep-18 16:36 36.086413 -115.155210 144 2188ft 0kts
27-Sep-18 16:37 36.086412 -115.155209 144 2188ft 0kts
27-Sep-18 16:38 36.087357 -115.155000 358 2188ft 9kts
27-Sep-18 16:39 36.091819 -115.155011 3 2188ft 20kts
27-Sep-18 16:40 36.096696 -115.152587 338 2188ft 10kts
27-Sep-18 16:41 36.097134 -115.153419 286 2188ft 5kts
27-Sep-18 16:42 36.096831 -115.154598 212 2188ft 16kts
27-Sep-18 16:43 36.063223 -115.173708 204 2781ft 204kts
27-Sep-18 16:44 36.012838 -115.208907 230 5209ft 232kts
27-Sep-18 16:45 35.976569 -115.284063 225 6916ft 271kts
27-Sep-18 16:46 35.901866 -115.310065 185 9322ft 295kts
27-Sep-18 16:47 35.898826 -115.310414 185 9431ft 295kts
27-Sep-18 16:51 35.393573 -115.305917 182 20325ft 404kts
27-Sep-18 16:52 35.294792 -115.362268 227 22143ft 411kts
27-Sep-18 16:53 35.214773 -115.463797 226 24130ft 412kts
27-Sep-18 16:54 35.135246 -115.564448 227 26266ft 409kts
27-Sep-18 16:55 35.056667 -115.664694 227 27941ft 411kts
27-Sep-18 16:56 34.978009 -115.765207 227 27964ft 406kts
27-Sep-18 16:57 34.899918 -115.864809 227 27971ft 406kts
27-Sep-18 16:58 34.822365 -115.963080 227 27977ft 406kts
27-Sep-18 16:59 34.743454 -116.063153 227 27965ft 405kts
27-Sep-18 17:00 34.666419 -116.161008 227 27970ft 406kts
27-Sep-18 17:01 34.587631 -116.261415 227 28019ft 405kts
27-Sep-18 17:02 34.509677 -116.360048 227 28034ft 397kts
27-Sep-18 17:03 34.435307 -116.454103 229 27011ft 378kts
27-Sep-18 17:04 34.382297 -116.560812 244 25616ft 367kts
27-Sep-18 17:05 34.337368 -116.669984 243 24140ft 358kts
27-Sep-18 17:06 34.294068 -116.777873 244 22143ft 354kts
27-Sep-18 17:07 34.251155 -116.884116 243 20139ft 349kts
27-Sep-18 17:08 34.210157 -116.986812 248 19219ft 334kts
27-Sep-18 17:09 34.180875 -117.094761 251 19052ft 340kts
27-Sep-18 17:10 34.151227 -117.204568 251 16776ft 345kts
27-Sep-18 17:11 34.122285 -117.314736 251 14392ft 344kts
27-Sep-18 17:12 34.094498 -117.422217 251 13937ft 339kts
27-Sep-18 17:13 34.066085 -117.532034 251 13927ft 342kts
27-Sep-18 17:14 34.037862 -117.641628 251 13933ft 342kts
27-Sep-18 17:15 34.009785 -117.751399 251 13952ft 343kts
27-Sep-18 17:16 33.981789 -117.861290 251 13940ft 339kts
27-Sep-18 17:17 33.954572 -117.968904 251 13572ft 342kts
27-Sep-18 17:18 33.926856 -118.078546 251 11067ft 340kts
27-Sep-18 17:19 33.912167 -118.180527 259 8770ft 338kts
27-Sep-18 17:20 33.854357 -118.260771 214 6279ft 326kts
27-Sep-18 17:21 33.777672 -118.288150 144 4939ft 281kts
27-Sep-18 17:22 33.788568 -118.222693 18 4938ft 248kts
27-Sep-18 17:23 33.855263 -118.205750 10 4935ft 240kts
27-Sep-18 17:24 33.913816 -118.238150 311 4200ft 233kts
27-Sep-18 17:25 33.941476 -118.303879 277 2495ft 234kts
27-Sep-18 17:26 33.937763 -118.373342 266 412ft 184kts
27-Sep-18 17:27 33.934641 -118.408857 274 134ft 17kts
27-Sep-18 17:28 33.935363 -118.411981 304 134ft 5kts
27-Sep-18 17:29 33.936981 -118.412882 353 134ft 13kts
27-Sep-18 17:30 33.940430 -118.412073 352 134ft 19kts
27-Sep-18 17:31 33.946262 -118.412877 355 134ft 8kts
27-Sep-18 17:32 33.947349 -118.410912 84 134ft 18kts

Navigation Log

Ident Type
Flight plan parsing failed, navigation log unavailable